Time;durP1;ratioP1;P1;durP2;ratioP2;P2;SDS_P1;SDS_P2;PMS_P1;PMS_P2;Temp;Humidity;BMP_temperature;BMP_pressure;BME280_temperature;BME280_humidity;BME280_pressure;Samples;Min_cycle;Max_cycle;Signal;HPM_P1;HPM_P2
2022/07/29 00:00:19;;;;;;;2.30;1.05;;;;;;;28.43;30.55;101277.00;5034626;28;20076;-67
2022/07/29 00:02:44;;;;;;;1.55;0.60;;;;;;;28.41;29.83;101277.25;5035818;28;20028;-67
2022/07/29 00:05:13;;;;;;;2.72;0.73;;;;;;;28.40;29.99;101282.97;5035822;28;20049;-67
2022/07/29 00:07:38;;;;;;;2.20;1.15;;;;;;;28.38;30.27;101276.84;5034818;28;20112;-67
2022/07/29 00:10:04;;;;;;;4.80;0.93;;;;;;;28.37;30.69;101280.69;5034616;28;20029;-66
2022/07/29 00:12:29;;;;;;;2.88;0.70;;;;;;;28.33;30.46;101285.00;5034578;28;20072;-66
2022/07/29 00:14:56;;;;;;;1.60;0.85;;;;;;;28.31;30.77;101294.31;5034557;28;20399;-66
2022/07/29 00:17:22;;;;;;;5.93;1.00;;;;;;;28.30;30.95;101308.34;5017804;28;20518;-66
2022/07/29 00:19:48;;;;;;;1.70;0.75;;;;;;;28.27;30.15;101320.69;5017943;28;20060;-67
2022/07/29 00:22:13;;;;;;;1.42;0.60;;;;;;;28.22;31.40;101328.81;5017876;28;20036;-67
2022/07/29 00:24:38;;;;;;;6.15;1.30;;;;;;;28.06;31.16;101329.44;5017869;28;20057;-66
2022/07/29 00:27:04;;;;;;;1.98;0.57;;;;;;;27.86;31.80;101328.84;5001659;28;20494;-66
2022/07/29 00:29:29;;;;;;;2.85;0.68;;;;;;;27.69;32.52;101312.06;5017012;28;20092;-67
2022/07/29 00:31:55;;;;;;;2.35;1.00;;;;;;;27.57;32.91;101297.41;5020745;28;20109;-66
2022/07/29 00:37:04;;;;;;;3.63;1.08;;;;;;;27.31;33.72;101285.78;5015464;28;20040;-66
2022/07/29 00:39:29;;;;;;;12.38;1.45;;;;;;;27.19;33.93;101292.03;5014238;28;20125;-67
2022/07/29 00:41:55;;;;;;;4.53;1.23;;;;;;;27.14;34.72;101289.13;4997724;28;20465;-67
2022/07/29 00:44:20;;;;;;;3.20;1.15;;;;;;;27.08;34.89;101280.97;4997879;28;20072;-67
2022/07/29 00:46:45;;;;;;;5.95;1.00;;;;;;;27.00;34.92;101273.81;4982135;28;20036;-66
2022/07/29 00:49:11;;;;;;;3.60;0.77;;;;;;;26.92;34.80;101270.50;4997750;28;20038;-66
2022/07/29 00:51:37;;;;;;;4.72;1.20;;;;;;;26.82;35.24;101271.03;4997610;28;20399;-67
2022/07/29 00:54:03;;;;;;;4.15;1.13;;;;;;;26.75;35.38;101275.72;5014085;28;20029;-67
2022/07/29 00:56:32;;;;;;;9.50;1.20;;;;;;;26.67;35.51;101275.13;4997542;28;20079;-65
2022/07/29 00:58:58;;;;;;;3.05;1.23;;;;;;;26.56;35.66;101263.81;5013920;28;20037;-67
2022/07/29 01:01:24;;;;;;;3.83;1.13;;;;;;;26.49;35.87;101264.94;4981196;28;20033;-67
2022/07/29 01:03:49;;;;;;;9.50;2.03;;;;;;;26.41;35.89;101257.78;5013744;28;20085;-67
2022/07/29 01:06:16;;;;;;;6.65;1.05;;;;;;;26.35;36.10;101255.94;5013731;28;20061;-66
2022/07/29 01:08:42;;;;;;;5.85;1.00;;;;;;;26.34;36.47;101256.16;5013662;28;20040;-68
2022/07/29 01:11:07;;;;;;;8.73;1.38;;;;;;;26.29;36.29;101258.75;4997318;28;20472;-67
2022/07/29 01:13:33;;;;;;;4.13;1.58;;;;;;;26.27;36.35;101255.38;5014880;28;20369;-68
2022/07/29 01:16:13;;;;;;;4.25;1.20;;;;;;;26.24;36.73;101264.06;4997172;28;20037;-67
2022/07/29 01:18:44;;;;;;;4.90;1.05;;;;;;;26.19;36.89;101255.63;5012835;28;20029;-67
2022/07/29 01:21:28;;;;;;;3.08;1.50;;;;;;;26.13;37.09;101260.06;4996984;28;20090;-67
2022/07/29 01:24:04;;;;;;;1.67;0.77;;;;;;;26.09;36.76;101252.47;5014687;28;20447;-66
2022/07/29 01:26:57;;;;;;;3.45;1.30;;;;;;;26.00;37.01;101243.66;5013429;28;20021;-66
2022/07/29 01:29:45;;;;;;;;;;;;;;;25.94;36.53;101239.03;4992532;28;20033;-66
2022/07/29 01:32:24;;;;;;;2.63;1.40;;;;;;;25.85;37.40;101249.44;5006351;28;19910;-66
2022/07/29 01:34:54;;;;;;;2.35;1.50;;;;;;;25.79;37.51;101244.84;5013237;28;20025;-66
2022/07/29 01:37:22;;;;;;;12.80;1.67;;;;;;;25.74;37.84;101249.31;4996800;28;20037;-66
2022/07/29 01:39:51;;;;;;;3.28;1.10;;;;;;;25.68;37.69;101242.78;5013160;28;20046;-67
2022/07/29 01:42:36;;;;;;;2.78;0.90;;;;;;;25.64;38.01;101238.78;4996637;28;20498;-66
2022/07/29 01:45:21;;;;;;;1.52;0.90;;;;;;;25.54;37.94;101229.34;4996738;28;20120;-65
2022/07/29 01:47:56;;;;;;;5.35;1.42;;;;;;;25.45;38.34;101228.69;5012991;28;20060;-65
2022/07/29 01:50:28;;;;;;;8.65;1.20;;;;;;;25.43;38.51;101222.59;5012982;28;20024;-66
2022/07/29 01:52:56;;;;;;;2.97;1.20;;;;;;;25.34;38.55;101224.72;4996506;28;20118;-66
2022/07/29 01:55:26;;;;;;;2.58;1.55;;;;;;;25.33;38.35;101224.94;4996442;28;20100;-66
2022/07/29 01:57:51;;;;;;;3.85;1.40;;;;;;;25.29;38.84;101224.50;5012879;28;20159;-66
2022/07/29 02:00:17;;;;;;;2.90;1.00;;;;;;;25.26;38.88;101224.13;5012694;28;20124;-66
2022/07/29 02:02:44;;;;;;;4.43;1.25;;;;;;;25.24;38.49;101220.72;5013835;28;20030;-66
2022/07/29 02:05:11;;;;;;;1.00;0.80;;;;;;;25.27;38.72;101228.53;5012691;28;20092;-65
2022/07/29 02:07:36;;;;;;;3.70;0.90;;;;;;;25.22;39.24;101217.38;5012780;28;20428;-66
2022/07/29 02:10:03;;;;;;;3.95;1.08;;;;;;;25.27;39.12;101226.63;5012661;28;20044;-66
2022/07/29 02:12:29;;;;;;;4.53;1.20;;;;;;;25.29;38.54;101229.19;4996200;28;20026;-65
2022/07/29 02:14:56;;;;;;;5.95;2.30;;;;;;;25.31;38.92;101225.16;4996238;28;20040;-66
2022/07/29 02:17:39;;;;;;;1.13;0.93;;;;;;;25.33;38.83;101224.94;4996274;28;20376;-66
2022/07/29 02:20:05;;;;;;;5.13;1.30;;;;;;;25.32;38.98;101212.28;5012418;28;20113;-66
2022/07/29 02:22:33;;;;;;;2.25;1.23;;;;;;;25.32;38.91;101202.13;4996184;28;20129;-66
2022/07/29 02:24:59;;;;;;;4.50;0.95;;;;;;;25.35;39.10;101220.91;5012484;28;20101;-66
2022/07/29 02:27:27;;;;;;;2.63;1.15;;;;;;;25.37;39.57;101220.72;4996033;28;20455;-66
2022/07/29 02:29:53;;;;;;;1.88;1.30;;;;;;;25.38;39.28;101216.88;5012403;28;20422;-65
2022/07/29 02:32:19;;;;;;;5.47;1.20;;;;;;;25.37;39.28;101220.72;5012514;28;20076;-66
2022/07/29 02:34:46;;;;;;;2.13;0.98;;;;;;;25.41;39.47;101238.41;4979858;28;20026;-65
2022/07/29 02:37:11;;;;;;;1.63;1.25;;;;;;;25.42;39.17;101234.63;5012424;28;20036;-66
2022/07/29 02:39:38;;;;;;;0.88;0.85;;;;;;;25.45;39.51;101236.94;5012348;28;20030;-66
2022/07/29 02:42:08;;;;;;;2.08;0.98;;;;;;;25.50;39.71;101247.28;5012242;28;20105;-66
2022/07/29 02:44:34;;;;;;;1.85;1.27;;;;;;;25.49;39.17;101235.44;4995775;28;20052;-66
2022/07/29 02:47:22;;;;;;;2.92;1.15;;;;;;;25.50;39.90;101220.69;5012250;28;20025;-65
2022/07/29 02:50:08;;;;;;;2.10;1.20;;;;;;;25.54;40.08;101221.94;5012246;28;20014;-66
2022/07/29 02:52:44;;;;;;;2.90;1.58;;;;;;;25.52;40.17;101224.03;5013724;28;20033;-66
2022/07/29 02:55:24;;;;;;;4.78;1.00;;;;;;;25.55;39.68;101223.59;5016256;28;20025;-65
2022/07/29 02:57:55;;;;;;;2.15;1.10;;;;;;;25.53;40.13;101220.25;5016100;28;20025;-66
2022/07/29 03:00:21;;;;;;;2.67;1.38;;;;;;;25.56;40.40;101230.78;5016089;28;20125;-66
2022/07/29 03:02:50;;;;;;;2.58;1.50;;;;;;;25.54;39.83;101227.44;4983353;28;20061;-66
2022/07/29 03:05:18;;;;;;;2.05;1.15;;;;;;;25.56;40.35;101233.53;4999611;28;20054;-66
2022/07/29 03:07:47;;;;;;;6.65;1.65;;;;;;;25.55;40.03;101237.31;5016043;28;20471;-66
2022/07/29 03:10:13;;;;;;;1.88;1.20;;;;;;;25.58;39.92;101223.19;4999388;28;20018;-66
2022/07/29 03:12:39;;;;;;;1.63;1.30;;;;;;;25.56;40.35;101218.97;5015922;28;20526;-66
2022/07/29 03:15:06;;;;;;;3.35;1.33;;;;;;;25.57;40.14;101223.41;4983213;28;20036;-66
2022/07/29 03:17:31;;;;;;;2.63;1.38;;;;;;;25.55;40.11;101226.34;5015776;28;20061;-66
2022/07/29 03:19:58;;;;;;;1.80;1.48;;;;;;;25.52;40.47;101228.72;5016878;28;20068;-66
2022/07/29 03:22:23;;;;;;;2.13;1.65;;;;;;;25.54;40.32;101241.16;5015790;28;20528;-66
2022/07/29 03:24:49;;;;;;;4.43;1.38;;;;;;;25.51;40.29;101232.50;5015625;28;20064;-66
2022/07/29 03:27:14;;;;;;;5.65;1.58;;;;;;;25.48;40.09;101232.94;4999442;28;20069;-66
2022/07/29 03:29:40;;;;;;;5.70;1.33;;;;;;;25.49;40.27;101237.38;5015598;28;20026;-66
2022/07/29 03:32:06;;;;;;;1.45;1.30;;;;;;;25.49;40.67;101238.19;5015739;28;20030;-66
2022/07/29 03:34:31;;;;;;;3.20;1.42;;;;;;;25.47;40.75;101237.56;4999112;28;20026;-67
2022/07/29 03:36:56;;;;;;;3.30;1.48;;;;;;;25.51;40.56;101243.47;5029297;28;20380;-66
2022/07/29 03:39:25;;;;;;;5.63;1.30;;;;;;;25.49;40.63;101237.38;5035122;28;20029;-66
2022/07/29 03:41:53;;;;;;;4.57;1.40;;;;;;;25.50;41.33;101242.63;5035260;28;20033;-68
2022/07/29 03:44:20;;;;;;;4.25;1.58;;;;;;;25.46;41.18;101247.66;5035053;28;20157;-66
2022/07/29 03:46:48;;;;;;;3.03;1.60;;;;;;;25.43;40.90;101247.28;5018480;28;20029;-66
2022/07/29 03:49:15;;;;;;;2.38;1.60;;;;;;;25.40;40.94;101254.00;5034919;28;20037;-66
2022/07/29 03:51:40;;;;;;;3.95;1.25;;;;;;;25.38;40.63;101255.28;5035029;28;20022;-66
2022/07/29 03:54:06;;;;;;;3.55;2.22;;;;;;;25.34;40.64;101245.81;5018369;28;20025;-66
2022/07/29 03:56:34;;;;;;;4.93;1.50;;;;;;;25.34;41.14;101259.53;5034909;28;20079;-66
2022/07/29 03:59:01;;;;;;;3.97;1.27;;;;;;;25.31;40.67;101258.06;5034820;28;20438;-66
2022/07/29 04:01:27;;;;;;;8.95;2.00;;;;;;;25.26;41.07;101257.03;5018267;28;20026;-66
2022/07/29 04:03:53;;;;;;;5.35;1.60;;;;;;;25.15;41.40;101260.44;5033470;28;20076;-66
2022/07/29 04:06:18;;;;;;;3.38;1.63;;;;;;;25.12;41.55;101253.47;5035687;28;20104;-66
2022/07/29 04:08:44;;;;;;;3.25;1.65;;;;;;;25.09;41.48;101242.09;5018171;28;20025;-66
2022/07/29 04:11:09;;;;;;;3.63;1.52;;;;;;;25.06;41.57;101234.28;5034524;28;20030;-66
2022/07/29 04:13:35;;;;;;;1.50;1.10;;;;;;;25.08;41.47;101243.97;5034639;28;20026;-66
2022/07/29 04:16:00;;;;;;;10.18;1.50;;;;;;;25.09;41.50;101242.09;5034595;28;20032;-65
2022/07/29 04:18:26;;;;;;;3.03;1.52;;;;;;;25.09;41.71;101247.56;5034368;28;20116;-66
2022/07/29 04:20:52;;;;;;;4.18;1.77;;;;;;;25.07;41.57;101247.75;5017679;28;20026;-66
2022/07/29 04:23:17;;;;;;;5.18;1.50;;;;;;;25.07;42.15;101241.47;5034423;28;20063;-66
2022/07/29 04:25:43;;;;;;;2.88;1.38;;;;;;;25.07;42.09;101239.53;5035550;28;20045;-66
2022/07/29 04:28:09;;;;;;;4.45;1.58;;;;;;;25.06;41.96;101239.78;5034485;28;20444;-66
2022/07/29 04:30:35;;;;;;;4.82;1.83;;;;;;;25.08;41.87;101243.13;5001849;28;20019;-66
2022/07/29 04:33:02;;;;;;;2.42;1.33;;;;;;;25.05;42.29;101243.56;5034285;28;20044;-66
2022/07/29 04:35:28;;;;;;;3.88;1.70;;;;;;;25.04;41.77;101242.75;5001517;28;20087;-66
2022/07/29 04:37:54;;;;;;;5.63;2.03;;;;;;;25.04;42.45;101236.41;5034194;28;20032;-66
2022/07/29 04:40:20;;;;;;;2.55;1.95;;;;;;;25.02;42.54;101236.59;5001019;28;20457;-66
2022/07/29 04:42:45;;;;;;;4.90;1.60;;;;;;;25.03;42.29;101248.41;5033987;28;20479;-66
2022/07/29 04:45:10;;;;;;;7.55;1.83;;;;;;;25.02;42.64;101260.44;5034010;28;20025;-66
2022/07/29 04:47:36;;;;;;;4.60;1.55;;;;;;;24.97;42.63;101252.84;5033867;28;20049;-67
2022/07/29 04:50:01;;;;;;;3.78;1.63;;;;;;;24.95;42.75;101259.63;5000891;28;20033;-66
2022/07/29 04:52:26;;;;;;;3.15;2.03;;;;;;;24.96;43.02;101253.91;5033972;28;20442;-66
2022/07/29 04:54:52;;;;;;;3.15;1.77;;;;;;;24.94;42.55;101257.91;5034975;28;20025;-66
2022/07/29 04:57:17;;;;;;;3.22;1.42;;;;;;;24.94;42.57;101252.44;5033787;28;20036;-66
2022/07/29 04:59:43;;;;;;;3.75;1.88;;;;;;;24.93;43.08;101250.75;5033694;28;20026;-66
2022/07/29 05:02:08;;;;;;;9.30;2.33;;;;;;;24.92;43.03;101244.44;5033556;28;20084;-66
2022/07/29 05:04:34;;;;;;;5.30;1.48;;;;;;;24.94;43.04;101257.91;5016872;28;20081;-66
2022/07/29 05:06:59;;;;;;;2.92;1.70;;;;;;;24.94;42.95;101257.91;5033540;28;20029;-66
2022/07/29 05:09:24;;;;;;;5.90;1.83;;;;;;;24.96;42.96;101256.66;5000717;28;20498;-66
2022/07/29 05:11:50;;;;;;;1.80;1.70;;;;;;;24.98;43.18;101254.56;5030325;28;20030;-66
2022/07/29 05:14:15;;;;;;;4.72;1.73;;;;;;;25.03;42.90;101252.00;5033371;28;20028;-66
2022/07/29 05:16:41;;;;;;;3.30;1.90;;;;;;;25.05;43.32;101249.03;5034295;28;20399;-66
2022/07/29 05:19:07;;;;;;;2.95;1.90;;;;;;;25.06;42.88;101248.00;5033483;28;20075;-66
2022/07/29 05:21:33;;;;;;;8.52;2.85;;;;;;;25.04;43.12;101241.91;5029350;28;20479;-66
2022/07/29 05:23:58;;;;;;;6.53;2.30;;;;;;;25.05;42.71;101243.56;5016701;28;20116;-66
2022/07/29 05:26:23;;;;;;;4.72;2.17;;;;;;;25.08;42.60;101238.50;5033203;28;20021;-66
2022/07/29 05:28:49;;;;;;;4.07;1.90;;;;;;;25.09;42.74;101242.94;5033107;28;20155;-66
2022/07/29 05:31:14;;;;;;;4.63;2.10;;;;;;;25.12;43.05;101244.41;5025411;28;20476;-66
2022/07/29 05:33:40;;;;;;;5.72;2.72;;;;;;;25.18;42.82;101249.84;4996982;28;20034;-65
2022/07/29 05:36:06;;;;;;;4.47;2.33;;;;;;;25.23;43.26;101246.50;4980785;28;20033;-65
2022/07/29 05:38:32;;;;;;;5.88;2.17;;;;;;;25.32;43.01;101248.75;5004822;28;20037;-66
2022/07/29 05:40:59;;;;;;;2.83;1.85;;;;;;;25.41;42.75;101252.13;5016386;28;20406;-65
2022/07/29 05:43:28;;;;;;;5.25;2.30;;;;;;;25.47;43.00;101262.28;5032792;28;20406;-67
2022/07/29 05:45:54;;;;;;;3.80;2.13;;;;;;;25.54;43.00;101265.00;5032937;28;20056;-67
2022/07/29 05:48:19;;;;;;;6.05;2.47;;;;;;;25.56;42.77;101263.72;5000018;28;20511;-66
2022/07/29 05:50:44;;;;;;;7.80;2.20;;;;;;;25.60;42.39;101270.44;5032697;28;20025;-66
2022/07/29 05:53:10;;;;;;;3.03;1.90;;;;;;;25.63;42.75;101261.78;5016130;28;20080;-66
2022/07/29 05:55:35;;;;;;;4.18;1.95;;;;;;;25.63;42.71;101270.00;5032757;28;20028;-65
2022/07/29 05:58:01;;;;;;;4.80;2.00;;;;;;;25.64;42.90;101274.47;5032630;28;20029;-66
2022/07/29 06:00:26;;;;;;;4.10;2.25;;;;;;;25.64;42.49;101277.19;5032370;28;20115;-66
2022/07/29 06:02:51;;;;;;;6.20;1.83;;;;;;;25.62;42.90;101279.31;5032506;28;20029;-66
2022/07/29 06:05:17;;;;;;;2.95;1.70;;;;;;;25.58;42.46;101294.53;5032434;28;20441;-66
2022/07/29 06:07:42;;;;;;;3.17;1.90;;;;;;;25.56;42.53;101296.66;5015978;28;20567;-65
2022/07/29 06:10:09;;;;;;;3.25;1.90;;;;;;;25.54;42.83;101287.81;5016034;28;20037;-66
2022/07/29 06:12:34;;;;;;;2.83;2.28;;;;;;;25.58;42.48;101293.69;5015788;28;20028;-66
2022/07/29 06:14:59;;;;;;;3.90;1.77;;;;;;;25.60;42.78;101302.56;5015786;28;20033;-66
2022/07/29 06:17:25;;;;;;;5.70;2.22;;;;;;;25.59;42.82;101298.13;5015752;28;20037;-66
2022/07/29 06:19:50;;;;;;;2.78;2.08;;;;;;;25.58;42.48;101297.28;5032155;28;20044;-66
2022/07/29 06:22:17;;;;;;;2.70;2.25;;;;;;;25.59;42.41;101295.38;5015657;28;20172;-66
2022/07/29 06:24:43;;;;;;;3.30;2.28;;;;;;;25.60;42.82;101297.88;5032037;28;20068;-66
2022/07/29 06:27:12;;;;;;;3.08;1.90;;;;;;;25.64;42.50;101301.91;5031458;28;20029;-66
2022/07/29 06:29:38;;;;;;;4.68;2.10;;;;;;;25.63;42.52;101305.69;5032157;28;20029;-66
2022/07/29 06:32:04;;;;;;;4.88;2.10;;;;;;;25.69;42.47;101312.22;5015488;28;20056;-67
2022/07/29 06:34:29;;;;;;;5.18;2.20;;;;;;;25.71;42.31;101315.63;5015600;28;20022;-66
2022/07/29 06:36:54;;;;;;;4.45;2.42;;;;;;;25.74;42.33;101316.00;5032050;28;20033;-66
2022/07/29 06:39:20;;;;;;;4.68;2.60;;;;;;;25.80;42.86;101320.63;5033285;28;20437;-66
2022/07/29 06:41:50;;;;;;;11.25;2.22;;;;;;;25.85;42.30;101320.00;5015442;28;20025;-66
2022/07/29 06:44:16;;;;;;;5.53;2.10;;;;;;;25.88;42.34;101317.63;5015509;28;20032;-66
2022/07/29 06:46:41;;;;;;;4.10;2.30;;;;;;;25.95;42.49;101317.63;5015424;28;20180;-66
2022/07/29 06:49:07;;;;;;;3.60;2.67;;;;;;;25.99;42.60;101322.44;5015267;28;20124;-66
2022/07/29 06:51:33;;;;;;;3.22;2.25;;;;;;;26.04;42.60;101324.56;5015383;28;20026;-66
2022/07/29 06:53:58;;;;;;;9.00;2.30;;;;;;;26.07;42.06;101326.88;5015368;28;20029;-66
2022/07/29 06:56:24;;;;;;;4.95;2.15;;;;;;;26.10;42.12;101320.94;5033154;28;20391;-66
2022/07/29 06:58:49;;;;;;;3.17;2.03;;;;;;;26.15;42.06;101321.16;5015375;28;20175;-66
2022/07/29 07:01:15;;;;;;;6.07;2.28;;;;;;;26.40;41.55;101312.97;5031652;28;20030;-67
2022/07/29 07:03:41;;;;;;;7.88;3.30;;;;;;;26.74;41.58;101323.53;5032864;28;20483;-67
2022/07/29 07:06:07;;;;;;;10.10;3.17;;;;;;;27.16;41.04;101317.25;4999255;28;20044;-66
2022/07/29 07:08:33;;;;;;;5.57;2.20;;;;;;;27.57;40.67;101329.59;5031758;28;20021;-66
2022/07/29 07:10:58;;;;;;;5.28;2.25;;;;;;;27.90;40.62;101323.69;5031748;28;20025;-66
2022/07/29 07:13:24;;;;;;;4.80;1.90;;;;;;;28.24;40.18;101337.69;5031651;28;20179;-66
2022/07/29 07:15:50;;;;;;;4.63;2.15;;;;;;;28.58;40.00;101330.63;5015189;28;20029;-66
2022/07/29 07:18:16;;;;;;;5.60;2.80;;;;;;;28.83;39.78;101342.38;5015210;28;20033;-66
2022/07/29 07:20:42;;;;;;;6.57;1.85;;;;;;;29.18;39.67;101339.63;5015200;28;20124;-66
2022/07/29 07:23:07;;;;;;;3.17;1.77;;;;;;;29.49;39.10;101337.63;5015191;28;20041;-66
2022/07/29 07:25:33;;;;;;;8.80;2.00;;;;;;;29.77;38.86;101337.72;5031565;28;20060;-66
2022/07/29 07:27:58;;;;;;;3.75;2.42;;;;;;;30.04;38.31;101343.59;5032794;28;20029;-65
2022/07/29 07:30:24;;;;;;;2.40;1.65;;;;;;;30.30;37.77;101343.84;5031468;28;20033;-66
2022/07/29 07:32:49;;;;;;;3.20;2.00;;;;;;;30.57;37.75;101344.09;5015232;28;20017;-65
2022/07/29 07:35:15;;;;;;;3.78;2.10;;;;;;;30.80;37.63;101332.06;5031965;28;20487;-66
2022/07/29 07:37:40;;;;;;;6.25;2.25;;;;;;;31.01;37.79;101334.13;5015021;28;20029;-66
2022/07/29 07:40:07;;;;;;;4.15;2.08;;;;;;;31.14;37.48;101326.31;5018794;28;20033;-66
2022/07/29 07:42:33;;;;;;;4.70;2.05;;;;;;;31.40;37.38;101329.47;5018710;28;20032;-66
2022/07/29 07:44:58;;;;;;;4.30;2.60;;;;;;;31.34;37.08;101327.72;5018545;28;20029;-66
2022/07/29 07:47:24;;;;;;;4.97;2.20;;;;;;;31.14;37.90;101323.56;5018428;28;20522;-66
2022/07/29 07:49:50;;;;;;;6.65;2.42;;;;;;;31.01;37.78;101345.19;5018381;28;20062;-66
2022/07/29 07:52:16;;;;;;;5.32;2.10;;;;;;;31.33;37.43;101343.50;5034920;28;20021;-66
2022/07/29 07:54:43;;;;;;;6.10;3.05;;;;;;;31.07;37.49;101338.66;5018531;28;20407;-66
2022/07/29 07:57:09;;;;;;;5.07;2.17;;;;;;;31.33;37.36;101339.88;5018639;28;20028;-66
2022/07/29 07:59:35;;;;;;;6.32;2.60;;;;;;;31.58;36.96;101343.91;5018356;28;20426;-66
2022/07/29 08:02:00;;;;;;;2.40;1.85;;;;;;;31.36;37.20;101342.16;5035039;28;20025;-66
2022/07/29 08:04:26;;;;;;;3.67;2.45;;;;;;;31.34;37.15;101350.72;5035777;28;20045;-66
2022/07/29 08:06:54;;;;;;;6.22;2.63;;;;;;;31.31;37.29;101345.69;5034901;28;20041;-66
2022/07/29 08:09:20;;;;;;;4.18;1.88;;;;;;;31.20;36.89;101348.53;5034731;28;20100;-66
2022/07/29 08:11:45;;;;;;;8.30;2.50;;;;;;;31.11;37.10;101345.34;5018015;28;20026;-66
2022/07/29 08:14:10;;;;;;;5.82;2.40;;;;;;;31.34;36.77;101349.88;5034694;28;20027;-66
2022/07/29 08:16:36;;;;;;;6.18;2.00;;;;;;;31.14;36.80;101350.41;5018042;28;20029;-66
2022/07/29 08:19:01;;;;;;;3.80;2.13;;;;;;;31.06;36.86;101354.44;5018075;28;20040;-66
2022/07/29 08:21:26;;;;;;;13.02;2.20;;;;;;;31.41;36.15;101351.38;5034271;28;20029;-66
2022/07/29 08:23:52;;;;;;;8.20;2.25;;;;;;;31.77;36.37;101352.75;5034312;28;20030;-65
2022/07/29 08:26:19;;;;;;;3.88;2.50;;;;;;;31.95;35.79;101354.38;5034247;28;20124;-66
2022/07/29 08:28:45;;;;;;;10.05;2.28;;;;;;;32.26;35.55;101346.22;5034433;28;20051;-67
2022/07/29 08:31:11;;;;;;;4.95;2.08;;;;;;;32.56;35.36;101354.06;5035518;28;20026;-66
2022/07/29 08:33:37;;;;;;;3.70;2.10;;;;;;;32.82;35.75;101353.22;5034240;28;20386;-66
2022/07/29 08:36:03;;;;;;;4.50;1.98;;;;;;;32.64;35.19;101356.34;5034116;28;20032;-66
2022/07/29 08:38:28;;;;;;;4.88;2.03;;;;;;;32.51;35.39;101356.75;5034147;28;20029;-66
2022/07/29 08:40:54;;;;;;;4.68;1.98;;;;;;;32.55;35.30;101362.66;5034163;28;20032;-66
2022/07/29 08:43:19;;;;;;;6.30;2.30;;;;;;;32.58;35.40;101351.03;5017637;28;20117;-66
2022/07/29 08:45:51;;;;;;;9.57;2.38;;;;;;;32.48;34.85;101360.06;5033927;28;20026;-66
2022/07/29 08:48:19;;;;;;;;;;;;;;;32.53;35.64;101357.31;5034447;28;20034;-66
2022/07/29 08:50:45;;;;;;;6.63;2.15;;;;;;;32.42;35.04;101346.38;5033681;28;19916;-66
2022/07/29 08:53:13;;;;;;;4.10;1.80;;;;;;;32.46;34.91;101358.63;5033879;28;20025;-66
2022/07/29 08:55:42;;;;;;;5.88;1.70;;;;;;;32.37;35.28;101355.50;5017273;28;20025;-66
2022/07/29 08:58:08;;;;;;;4.63;2.08;;;;;;;32.20;35.13;101349.19;5034888;28;20033;-66
2022/07/29 09:00:36;;;;;;;5.18;1.95;;;;;;;32.28;34.62;101363.44;5033760;28;20540;-66
2022/07/29 09:03:02;;;;;;;7.00;1.73;;;;;;;32.24;35.36;101367.00;5033767;28;20029;-66
2022/07/29 09:05:28;;;;;;;7.93;2.30;;;;;;;32.21;34.82;101373.06;5033432;28;20481;-66
2022/07/29 09:07:53;;;;;;;6.07;1.92;;;;;;;32.24;34.85;101372.53;5017046;28;20029;-66
2022/07/29 09:10:19;;;;;;;6.30;1.77;;;;;;;32.22;34.71;101374.72;5017131;28;20032;-65
2022/07/29 09:12:45;;;;;;;3.35;1.83;;;;;;;32.18;34.16;101379.97;5017057;28;20018;-66
2022/07/29 09:15:10;;;;;;;9.05;2.30;;;;;;;32.48;33.64;101367.53;5033531;28;20533;-66
2022/07/29 09:17:43;;;;;;;3.47;2.28;;;;;;;32.46;34.57;101372.50;5033331;28;20040;-66
2022/07/29 09:20:16;;;;;;;8.20;1.90;;;;;;;32.30;34.28;101370.66;5033457;28;20033;-66
2022/07/29 09:22:42;;;;;;;4.57;2.17;;;;;;;32.15;34.09;101374.09;5033405;28;20399;-66
2022/07/29 09:25:08;;;;;;;4.35;2.28;;;;;;;32.07;35.04;101371.78;5034313;28;20037;-66
2022/07/29 09:27:34;;;;;;;3.17;2.03;;;;;;;32.03;34.85;101376.13;5033058;28;20030;-66
2022/07/29 09:30:12;;;;;;;9.40;1.92;;;;;;;32.06;34.61;101367.31;5033154;28;20017;-66
2022/07/29 09:32:58;;;;;;;5.45;2.17;;;;;;;32.67;33.31;101366.94;5032992;28;20630;-66
2022/07/29 09:35:25;;;;;;;3.38;2.33;;;;;;;32.94;33.49;101377.19;5032987;28;20033;-66
2022/07/29 09:37:51;;;;;;;4.93;2.35;;;;;;;33.09;33.23;101371.78;5032980;28;20116;-66
2022/07/29 09:40:18;;;;;;;7.47;1.92;;;;;;;33.42;33.71;101375.13;5016698;28;20104;-66
2022/07/29 09:42:44;;;;;;;6.60;2.25;;;;;;;33.94;33.35;101377.97;5032948;28;20056;-66
2022/07/29 09:45:11;;;;;;;5.45;2.38;;;;;;;34.39;32.20;101379.31;5032765;28;20049;-66
2022/07/29 09:47:48;;;;;;;5.13;2.00;;;;;;;34.85;31.35;101377.47;5016310;28;20032;-66
2022/07/29 09:50:14;;;;;;;4.75;2.17;;;;;;;35.16;31.87;101372.78;5032721;28;20450;-66
2022/07/29 09:52:48;;;;;;;4.55;1.88;;;;;;;35.43;31.31;101363.00;5032639;28;20399;-66
2022/07/29 09:55:14;;;;;;;6.10;1.83;;;;;;;35.60;31.65;101373.88;5016175;28;20112;-66
2022/07/29 09:57:39;;;;;;;3.20;1.45;;;;;;;35.59;31.14;101378.63;5032676;28;20060;-66
2022/07/29 10:00:11;;;;;;;7.25;2.15;;;;;;;36.03;30.79;101373.22;5015975;28;20033;-66
2022/07/29 10:02:38;;;;;;;10.88;1.98;;;;;;;35.90;30.96;101368.22;5015074;28;20515;-66
2022/07/29 10:05:06;;;;;;;3.92;2.60;;;;;;;36.44;30.42;101361.84;5015818;28;20049;-66
2022/07/29 10:07:45;;;;;;;4.15;1.92;;;;;;;36.65;30.57;101369.03;5015936;28;20033;-66
2022/07/29 10:10:10;;;;;;;7.43;2.25;;;;;;;36.74;30.36;101359.72;5015879;28;20018;-66
2022/07/29 10:12:49;;;;;;;4.53;2.03;;;;;;;36.69;30.26;101365.34;5033572;28;20040;-66
2022/07/29 10:15:15;;;;;;;10.02;2.15;;;;;;;36.79;30.29;101370.03;5032390;28;20075;-66
2022/07/29 10:17:41;;;;;;;3.30;1.90;;;;;;;37.46;29.21;101362.81;5033449;28;20021;-66
2022/07/29 10:20:07;;;;;;;5.97;1.98;;;;;;;37.22;29.58;101373.88;5032232;28;20021;-66
2022/07/29 10:22:33;;;;;;;3.60;2.47;;;;;;;36.90;29.61;101371.63;5033720;28;20482;-66
2022/07/29 10:24:59;;;;;;;2.67;2.22;;;;;;;37.16;29.02;101364.72;5032254;28;20060;-66
2022/07/29 10:27:24;;;;;;;3.50;2.10;;;;;;;37.54;28.93;101364.94;4999321;28;20065;-66
2022/07/29 10:29:49;;;;;;;2.45;1.77;;;;;;;37.76;28.96;101359.66;5032113;28;20357;-66
2022/07/29 10:32:35;;;;;;;3.33;2.42;;;;;;;38.01;28.26;101361.34;5033372;28;20061;-66
2022/07/29 10:35:27;;;;;;;2.53;2.05;;;;;;;38.24;27.66;101372.53;5032311;28;20508;-66
2022/07/29 10:38:09;;;;;;;3.53;1.83;;;;;;;38.60;27.51;101352.44;5033232;28;20025;-66
2022/07/29 10:43:37;;;;;;;4.55;2.00;;;;;;;39.09;27.05;101358.38;5033168;28;20407;-66
2022/07/29 10:46:03;;;;;;;3.45;2.00;;;;;;;39.49;27.09;101348.44;5032086;28;20051;-66
2022/07/29 10:48:29;;;;;;;2.40;2.17;;;;;;;39.88;27.12;101354.41;5032053;28;20546;-66
2022/07/29 10:51:02;;;;;;;3.53;2.13;;;;;;;40.18;26.19;101354.97;5033096;28;20021;-67
2022/07/29 10:53:47;;;;;;;4.68;2.55;;;;;;;40.51;25.96;101356.47;5031972;28;20040;-67
2022/07/29 10:56:27;;;;;;;2.80;2.30;;;;;;;40.80;25.70;101353.22;5031798;28;20021;-67
2022/07/29 10:59:20;;;;;;;7.22;2.35;;;;;;;41.14;25.78;101359.13;5031841;28;20527;-67
2022/07/29 11:01:50;;;;;;;4.35;1.73;;;;;;;41.41;25.46;101359.00;5032936;28;20033;-67
2022/07/29 11:04:16;;;;;;;3.13;1.73;;;;;;;41.62;24.85;101365.75;5015314;28;20060;-66
2022/07/29 11:07:00;;;;;;;2.55;1.90;;;;;;;41.80;24.61;101359.03;5031830;28;20037;-67
2022/07/29 11:09:25;;;;;;;4.65;2.22;;;;;;;41.93;24.64;101348.84;5031701;28;20041;-67
2022/07/29 11:11:51;;;;;;;3.20;2.67;;;;;;;42.13;24.30;101355.84;5015309;28;20022;-67
2022/07/29 11:14:17;;;;;;;1.58;1.48;;;;;;;42.24;24.16;101354.41;5017995;28;20399;-66
2022/07/29 11:17:05;;;;;;;4.28;1.90;;;;;;;42.36;23.98;101357.38;5019089;28;20037;-67
2022/07/29 11:19:31;;;;;;;1.98;1.70;;;;;;;42.49;24.27;101362.06;5036843;28;20388;-67
2022/07/29 11:21:57;;;;;;;1.95;1.85;;;;;;;42.54;23.90;101359.06;5002590;28;20036;-67
2022/07/29 11:24:28;;;;;;;1.88;1.33;;;;;;;42.58;23.70;101353.66;5035470;28;20029;-66
2022/07/29 11:27:17;;;;;;;1.40;1.30;;;;;;;42.50;23.41;101357.22;5035563;28;20025;-66
2022/07/29 11:29:56;;;;;;;2.40;1.80;;;;;;;42.53;23.55;101357.41;5035438;28;20028;-66
2022/07/29 11:32:24;;;;;;;3.00;2.30;;;;;;;42.63;23.14;101351.50;5035277;28;20121;-66